Time;durP1;ratioP1;P1;durP2;ratioP2;P2;SDS_P1;SDS_P2;PMS_P1;PMS_P2;Temp;Humidity;BMP_temperature;BMP_pressure;BME280_temperature;BME280_humidity;BME280_pressure;Samples;Min_cycle;Max_cycle;Signal;HPM_P1;HPM_P2
2022/03/14 00:01:04;;;;;;;21.70;13.83;;;;;;;2.62;73.47;100921.22;5057440;28;20208;-70
2022/03/14 00:03:40;;;;;;;19.97;13.20;;;;;;;2.59;73.82;100923.66;5055559;28;20203;-70
2022/03/14 00:06:12;;;;;;;30.03;16.93;;;;;;;2.52;74.28;100927.72;5068997;28;20200;-70
2022/03/14 00:08:40;;;;;;;21.30;13.83;;;;;;;2.48;74.20;100930.13;5059179;28;20188;-70
2022/03/14 00:11:07;;;;;;;22.53;14.17;;;;;;;2.43;74.42;100929.13;5066218;28;20272;-70
2022/03/14 00:13:34;;;;;;;20.30;14.00;;;;;;;2.43;74.05;100931.66;5062111;28;20200;-70
2022/03/14 00:16:03;;;;;;;21.50;12.73;;;;;;;2.45;73.82;100930.06;5064652;28;20291;-70
2022/03/14 00:18:32;;;;;;;18.83;12.73;;;;;;;2.44;73.66;100935.91;5062685;28;20274;-71
2022/03/14 00:20:59;;;;;;;18.43;13.53;;;;;;;2.42;73.62;100927.44;5069805;28;20231;-71
2022/03/14 00:23:28;;;;;;;15.63;11.30;;;;;;;2.47;73.52;100933.47;5066799;28;20219;-70
2022/03/14 00:25:55;;;;;;;18.10;11.07;;;;;;;2.50;73.09;100941.16;5060519;28;20196;-70
2022/03/14 00:28:22;;;;;;;13.80;11.30;;;;;;;2.53;72.55;100938.69;5055114;28;20287;-70
2022/03/14 00:30:49;;;;;;;16.00;10.83;;;;;;;2.56;72.60;100933.72;5062406;28;20203;-70
2022/03/14 00:33:16;;;;;;;18.20;11.63;;;;;;;2.59;72.14;100934.66;5062145;28;20204;-70
2022/03/14 00:35:42;;;;;;;14.33;11.60;;;;;;;2.61;71.83;100939.78;5058124;28;20287;-70
2022/03/14 00:38:09;;;;;;;14.73;10.13;;;;;;;2.59;72.11;100931.25;5064795;28;20273;-71
2022/03/14 00:40:38;;;;;;;13.37;10.70;;;;;;;2.63;72.57;100941.53;5057056;28;20251;-70
2022/03/14 00:43:06;;;;;;;13.43;11.40;;;;;;;2.61;73.14;100943.16;5062877;28;20196;-70
2022/03/14 00:45:34;;;;;;;13.33;11.00;;;;;;;2.55;74.77;100942.16;5063549;28;20200;-70
2022/03/14 00:48:01;;;;;;;17.60;13.03;;;;;;;2.55;74.88;100945.50;5069985;28;20683;-70
2022/03/14 00:50:28;;;;;;;19.60;12.30;;;;;;;2.47;75.37;100929.28;5070325;28;20695;-71
2022/03/14 00:52:55;;;;;;;19.70;11.77;;;;;;;2.54;76.60;100940.41;5069949;28;20193;-70
2022/03/14 00:55:22;;;;;;;16.03;12.93;;;;;;;2.53;76.75;100943.75;5059431;28;20341;-70
2022/03/14 00:57:50;;;;;;;20.70;14.37;;;;;;;2.52;77.26;100942.06;5067353;28;20774;-70
2022/03/14 01:00:17;;;;;;;20.30;12.97;;;;;;;2.53;77.36;100953.88;5067309;28;20220;-70
2022/03/14 01:02:48;;;;;;;19.13;13.97;;;;;;;2.45;77.38;100930.06;5059728;28;20616;-70
2022/03/14 01:05:15;;;;;;;24.57;14.00;;;;;;;2.56;77.34;100949.75;5067925;28;20204;-70
2022/03/14 01:07:42;;;;;;;17.97;13.63;;;;;;;2.49;77.42;100931.81;5066908;28;20200;-71
2022/03/14 01:10:09;;;;;;;21.87;14.43;;;;;;;2.60;77.68;100948.19;5067251;28;20228;-71
2022/03/14 01:12:36;;;;;;;19.47;12.77;;;;;;;2.62;77.44;100954.13;5073062;28;20279;-71
2022/03/14 01:15:05;;;;;;;18.33;13.63;;;;;;;2.63;77.64;100946.59;5068904;28;20200;-70
2022/03/14 01:17:32;;;;;;;20.87;13.57;;;;;;;2.65;77.60;100949.13;5068199;28;20649;-71
2022/03/14 01:20:00;;;;;;;17.20;12.87;;;;;;;2.55;78.41;100942.16;5066620;28;20218;-70
2022/03/14 01:22:27;;;;;;;17.67;12.97;;;;;;;2.62;78.78;100954.97;5060305;28;20285;-70
2022/03/14 01:24:54;;;;;;;18.93;12.47;;;;;;;2.62;78.85;100952.44;5069447;28;20286;-70
2022/03/14 01:27:20;;;;;;;15.63;12.90;;;;;;;2.62;79.11;100954.13;5064404;28;20200;-70
2022/03/14 01:29:47;;;;;;;16.80;12.53;;;;;;;2.66;79.67;100958.47;5061389;28;20191;-70
2022/03/14 01:32:17;;;;;;;18.93;13.00;;;;;;;2.60;79.98;100951.56;5064326;28;20299;-70
2022/03/14 01:34:43;;;;;;;18.03;13.37;;;;;;;2.57;80.31;100950.63;5058634;28;20720;-70
2022/03/14 01:37:10;;;;;;;18.60;12.60;;;;;;;2.63;80.68;100960.91;5062751;28;20326;-71
2022/03/14 01:39:37;;;;;;;24.17;12.33;;;;;;;2.45;80.85;100940.19;5068426;28;20217;-70
2022/03/14 01:42:05;;;;;;;20.60;13.63;;;;;;;2.51;81.54;100965.66;5059230;28;20595;-70
2022/03/14 01:44:32;;;;;;;18.97;12.27;;;;;;;2.36;81.89;100945.00;5061894;28;20752;-70
2022/03/14 01:47:00;;;;;;;19.83;13.03;;;;;;;2.46;82.12;100960.44;5059480;28;20300;-70
2022/03/14 01:49:28;;;;;;;16.40;11.17;;;;;;;2.48;82.33;100970.63;5056784;28;20227;-70
2022/03/14 01:51:58;;;;;;;16.00;10.60;;;;;;;2.47;82.78;100979.03;5065691;28;20201;-70
2022/03/14 01:54:25;;;;;;;16.43;11.63;;;;;;;2.47;82.79;100976.50;5066777;28;20204;-70
2022/03/14 01:56:52;;;;;;;13.87;10.83;;;;;;;2.47;82.80;100979.03;5067606;28;20328;-70
2022/03/14 01:59:21;;;;;;;15.50;9.97;;;;;;;2.48;83.24;100986.69;5069082;28;20228;-70
2022/03/14 02:01:48;;;;;;;13.77;10.20;;;;;;;2.51;83.58;100990.97;5062908;28;20287;-71
2022/03/14 02:04:18;;;;;;;10.43;9.43;;;;;;;2.52;83.62;100987.63;5063037;28;20196;-70
2022/03/14 02:06:47;;;;;;;13.07;9.40;;;;;;;2.54;83.64;100996.13;5063605;28;20204;-70
2022/03/14 02:09:13;;;;;;;13.13;9.87;;;;;;;2.57;83.72;100996.19;5056091;28;20204;-70
2022/03/14 02:11:51;;;;;;;10.87;9.33;;;;;;;2.57;83.93;100999.59;5058708;28;20279;-70
2022/03/14 02:14:18;;;;;;;13.03;10.60;;;;;;;2.57;83.60;101003.78;5064227;28;20266;-70
2022/03/14 02:16:45;;;;;;;13.00;9.33;;;;;;;2.57;83.82;101006.31;5061315;28;20197;-71
2022/03/14 02:19:12;;;;;;;12.53;8.87;;;;;;;2.55;83.83;101001.19;5068191;28;20204;-70
2022/03/14 02:21:41;;;;;;;13.30;9.37;;;;;;;2.58;83.95;101006.38;5065305;28;20643;-70
2022/03/14 02:24:08;;;;;;;14.00;9.70;;;;;;;2.57;84.59;101002.13;5062903;28;20192;-70
2022/03/14 02:26:39;;;;;;;11.93;10.03;;;;;;;2.57;84.70;101003.78;5062319;28;20292;-70
2022/03/14 02:29:06;;;;;;;10.60;9.63;;;;;;;2.61;84.82;101015.72;5065956;28;20195;-70
2022/03/14 02:31:34;;;;;;;11.03;9.70;;;;;;;2.58;85.00;101010.56;5066116;28;20736;-70
2022/03/14 02:34:00;;;;;;;10.33;9.00;;;;;;;2.58;84.97;101013.09;5059258;28;20196;-70
2022/03/14 02:36:27;;;;;;;10.87;9.33;;;;;;;2.58;85.11;101015.63;5064595;28;20200;-70
2022/03/14 02:38:56;;;;;;;11.03;9.83;;;;;;;2.59;85.04;101019.88;5067357;28;20204;-70
2022/03/14 02:41:23;;;;;;;14.70;9.40;;;;;;;2.61;84.80;101018.25;5065661;28;20679;-70
2022/03/14 02:43:50;;;;;;;10.27;8.83;;;;;;;2.55;84.86;101008.78;5063395;28;20673;-71
2022/03/14 02:46:17;;;;;;;13.87;10.00;;;;;;;2.63;84.40;101021.66;5062804;28;20201;-70
2022/03/14 02:48:44;;;;;;;11.93;9.67;;;;;;;2.57;84.40;101012.25;5068540;28;20303;-70
2022/03/14 02:51:11;;;;;;;13.30;10.10;;;;;;;2.64;84.36;101026.78;5064362;28;20282;-70
2022/03/14 02:53:38;;;;;;;12.30;9.03;;;;;;;2.63;84.46;101027.59;5059239;28;20211;-70
2022/03/14 02:56:06;;;;;;;11.80;10.63;;;;;;;2.62;84.22;101025.88;5065183;28;20200;-70
2022/03/14 02:58:38;;;;;;;10.47;8.63;;;;;;;2.59;84.66;101035.91;5053786;28;20283;-70
2022/03/14 03:01:05;;;;;;;9.90;8.57;;;;;;;2.59;84.68;101035.06;5064253;28;20308;-70
2022/03/14 03:03:32;;;;;;;11.43;9.83;;;;;;;2.58;84.67;101036.75;5064823;28;20207;-70
2022/03/14 03:05:59;;;;;;;9.13;8.23;;;;;;;2.56;85.52;101034.97;5065473;28;20192;-70
2022/03/14 03:08:27;;;;;;;14.50;8.10;;;;;;;2.44;85.45;101024.50;5063085;28;20291;-70
2022/03/14 03:10:57;;;;;;;14.73;8.97;;;;;;;2.50;86.17;101043.25;5064179;28;20228;-70
2022/03/14 03:13:27;;;;;;;10.13;8.60;;;;;;;2.46;86.15;101043.97;5057160;28;20197;-70
2022/03/14 03:15:55;;;;;;;8.73;7.90;;;;;;;2.43;86.67;101048.97;5060358;28;20676;-71
2022/03/14 03:18:24;;;;;;;12.47;8.40;;;;;;;2.44;87.30;101047.28;5060972;28;20728;-70
2022/03/14 03:20:51;;;;;;;9.13;8.43;;;;;;;2.39;87.50;101048.84;5058945;28;20266;-71
2022/03/14 03:23:19;;;;;;;12.43;7.90;;;;;;;2.37;87.19;101043.72;5060719;28;20266;-70
2022/03/14 03:25:46;;;;;;;10.10;8.90;;;;;;;2.33;85.70;101041.91;5065008;28;20291;-70
2022/03/14 03:28:12;;;;;;;10.13;9.23;;;;;;;2.23;84.21;101044.16;5059468;28;20300;-70
2022/03/14 03:30:41;;;;;;;9.63;8.10;;;;;;;2.06;83.50;101052.09;5063785;28;20600;-70
2022/03/14 03:33:08;;;;;;;11.13;9.13;;;;;;;1.93;83.90;101044.94;5062164;28;20283;-70
2022/03/14 03:35:35;;;;;;;11.17;9.87;;;;;;;1.95;84.88;101050.88;5066472;28;20591;-70
2022/03/14 03:38:02;;;;;;;11.73;10.47;;;;;;;1.90;85.22;101059.16;5060687;28;20200;-70
2022/03/14 03:40:28;;;;;;;14.50;10.70;;;;;;;1.74;85.52;101062.88;5063228;28;20219;-70
2022/03/14 03:42:55;;;;;;;12.33;9.53;;;;;;;1.65;85.72;101067.63;5054284;28;20219;-70
2022/03/14 03:45:22;;;;;;;11.83;10.50;;;;;;;1.62;85.41;101080.16;5066537;28;20236;-70
2022/03/14 03:47:51;;;;;;;14.27;10.13;;;;;;;1.59;85.20;101075.00;5064404;28;20334;-70
2022/03/14 03:50:18;;;;;;;15.47;10.47;;;;;;;1.62;85.52;101082.69;5063279;28;20291;-70
2022/03/14 03:52:45;;;;;;;12.73;10.07;;;;;;;1.64;85.39;101086.13;5060653;28;20291;-70
2022/03/14 03:55:12;;;;;;;13.67;11.10;;;;;;;1.66;85.78;101086.19;5060030;28;20640;-70
2022/03/14 03:57:39;;;;;;;18.00;10.77;;;;;;;1.71;85.96;101085.53;5057451;28;20224;-70
2022/03/14 04:00:12;;;;;;;18.53;11.03;;;;;;;1.73;84.71;101086.44;5065804;28;20246;-70
2022/03/14 04:02:41;;;;;;;13.63;10.30;;;;;;;1.76;84.58;101096.66;5057784;28;20197;-70
2022/03/14 04:05:10;;;;;;;21.87;10.77;;;;;;;1.76;84.71;101095.78;5060333;28;20223;-70
2022/03/14 04:07:40;;;;;;;14.10;11.10;;;;;;;1.80;84.77;101098.47;5067376;28;20589;-70
2022/03/14 04:10:08;;;;;;;13.60;10.53;;;;;;;1.86;84.50;101103.72;5063306;28;20197;-70
2022/03/14 04:12:39;;;;;;;16.83;12.40;;;;;;;1.92;84.14;101110.63;5065117;28;20205;-70
2022/03/14 04:15:09;;;;;;;13.43;10.90;;;;;;;1.95;83.86;101111.59;5062490;28;20227;-70
2022/03/14 04:17:36;;;;;;;13.87;10.20;;;;;;;1.97;84.20;101121.78;5053038;28;20550;-70
2022/03/14 04:20:04;;;;;;;15.90;10.93;;;;;;;1.98;83.80;101121.81;5059716;28;20223;-69
2022/03/14 04:22:33;;;;;;;14.83;11.17;;;;;;;2.04;84.09;101124.50;5063914;28;20192;-70
2022/03/14 04:25:00;;;;;;;18.90;9.80;;;;;;;2.06;83.83;101133.03;5062366;28;20196;-70
2022/03/14 04:27:27;;;;;;;13.47;10.53;;;;;;;1.94;83.69;101112.38;5061842;28;20203;-70
2022/03/14 04:29:53;;;;;;;11.40;10.23;;;;;;;2.06;83.76;101133.03;5060156;28;20197;-70
2022/03/14 04:32:20;;;;;;;11.43;9.47;;;;;;;2.07;83.58;101133.88;5057716;28;20201;-70
2022/03/14 04:34:47;;;;;;;13.97;10.57;;;;;;;2.07;83.58;101139.78;5061186;28;20196;-70
2022/03/14 04:37:14;;;;;;;15.50;10.37;;;;;;;2.03;83.68;101135.47;5062037;28;20204;-70
2022/03/14 04:39:43;;;;;;;16.07;9.90;;;;;;;2.03;83.65;101135.47;5054113;28;20246;-70
2022/03/14 04:42:11;;;;;;;16.13;9.77;;;;;;;2.00;84.01;101137.03;5059176;28;20227;-69
2022/03/14 04:44:38;;;;;;;15.53;11.47;;;;;;;2.01;84.46;101134.53;5058948;28;20340;-70
2022/03/14 04:47:05;;;;;;;18.23;11.27;;;;;;;1.90;85.10;101115.66;5059819;28;20634;-70
2022/03/14 04:49:32;;;;;;;14.23;9.70;;;;;;;2.01;85.31;101133.69;5066520;28;20195;-70
2022/03/14 04:51:59;;;;;;;13.07;10.47;;;;;;;1.92;85.44;101116.56;5058782;28;20286;-69
2022/03/14 04:54:27;;;;;;;13.47;9.93;;;;;;;2.09;85.29;101137.31;5061041;28;20195;-69
2022/03/14 04:56:55;;;;;;;11.73;10.17;;;;;;;2.07;85.44;101134.72;5067098;28;20257;-69
2022/03/14 04:59:22;;;;;;;15.83;10.10;;;;;;;2.03;85.68;101138.00;5065828;28;20688;-70
2022/03/14 05:01:49;;;;;;;14.93;12.40;;;;;;;2.04;85.57;101143.88;5065789;28;20215;-70
2022/03/14 05:04:16;;;;;;;28.50;16.97;;;;;;;1.96;85.33;101141.13;5063215;28;20679;-70
2022/03/14 05:06:44;;;;;;;15.60;12.13;;;;;;;1.92;85.55;101133.38;5063150;28;20287;-70
2022/03/14 05:09:11;;;;;;;16.37;11.87;;;;;;;1.87;85.38;101156.03;5058063;28;20681;-70
2022/03/14 05:11:38;;;;;;;10.73;9.30;;;;;;;1.75;86.04;101155.59;5066916;28;20279;-70
2022/03/14 05:14:09;;;;;;;14.37;10.13;;;;;;;1.68;86.32;101148.59;5061448;28;20211;-70
2022/03/14 05:16:36;;;;;;;12.50;10.97;;;;;;;1.70;86.86;101157.13;5062330;28;20204;-70
2022/03/14 05:19:03;;;;;;;11.97;10.27;;;;;;;1.69;87.68;101164.63;5058137;28;20287;-70
2022/03/14 05:21:33;;;;;;;17.00;10.00;;;;;;;1.69;88.08;101165.50;5060962;28;20310;-70
2022/03/14 05:24:00;;;;;;;11.73;10.53;;;;;;;1.63;88.26;101155.19;5059167;28;20200;-70
2022/03/14 05:26:27;;;;;;;13.03;11.23;;;;;;;1.80;88.35;101181.03;5068894;28;20219;-70
2022/03/14 05:28:54;;;;;;;17.40;13.67;;;;;;;1.84;88.37;101188.75;5066907;28;20291;-70
2022/03/14 05:31:22;;;;;;;25.73;14.37;;;;;;;1.85;88.24;101187.97;5065801;28;20288;-70
2022/03/14 05:33:49;;;;;;;16.37;13.13;;;;;;;1.79;88.13;101177.66;5062963;28;20554;-70
2022/03/14 05:36:16;;;;;;;18.93;13.20;;;;;;;1.82;87.71;101187.88;5062975;28;20205;-70
2022/03/14 05:38:44;;;;;;;17.83;12.63;;;;;;;1.86;87.45;101192.22;5062506;28;20201;-70
2022/03/14 05:41:10;;;;;;;18.87;12.33;;;;;;;1.86;87.48;101196.41;5061475;28;20649;-70
2022/03/14 05:43:39;;;;;;;13.63;11.80;;;;;;;1.86;87.94;101202.34;5070103;28;20286;-70
2022/03/14 05:46:08;;;;;;;17.87;10.93;;;;;;;1.93;87.89;101200.88;5070461;28;20287;-70
2022/03/14 05:48:36;;;;;;;15.83;12.13;;;;;;;1.97;88.13;101203.53;5065442;28;20204;-70
2022/03/14 05:51:05;;;;;;;20.57;12.43;;;;;;;2.01;88.61;101199.44;5063097;28;20204;-70
2022/03/14 05:53:32;;;;;;;20.53;12.10;;;;;;;2.01;89.11;101194.38;5059042;28;20692;-70
2022/03/14 05:55:59;;;;;;;21.13;12.67;;;;;;;1.99;89.98;101196.00;5066659;28;20571;-70
2022/03/14 05:58:26;;;;;;;19.17;12.17;;;;;;;1.99;90.37;101196.88;5063524;28;20292;-70
2022/03/14 06:00:53;;;;;;;34.60;14.87;;;;;;;1.80;90.33;101173.44;5064850;28;20299;-70
2022/03/14 06:03:21;;;;;;;20.27;12.27;;;;;;;1.76;90.49;101167.44;5062834;28;20283;-70
2022/03/14 06:05:49;;;;;;;19.97;12.37;;;;;;;1.92;90.00;101189.88;5063506;28;20207;-71
2022/03/14 06:08:17;;;;;;;16.53;12.27;;;;;;;1.94;89.81;101183.19;5055803;28;20232;-71
2022/03/14 06:10:46;;;;;;;19.80;12.43;;;;;;;2.07;90.08;101205.56;5066932;28;20291;-72
2022/03/14 06:13:13;;;;;;;24.90;14.47;;;;;;;2.11;88.49;101209.06;5067876;28;20212;-72
2022/03/14 06:15:40;;;;;;;19.03;11.37;;;;;;;2.14;89.30;101216.75;5063526;28;20200;-72
2022/03/14 06:18:07;;;;;;;12.43;10.83;;;;;;;2.22;89.67;101219.53;5066042;28;20564;-73
2022/03/14 06:20:34;;;;;;;17.53;11.07;;;;;;;2.31;87.60;101224.88;5062864;28;20200;-72
2022/03/14 06:23:02;;;;;;;13.83;10.80;;;;;;;2.41;86.25;101221.84;5062882;28;20304;-72
2022/03/14 06:25:30;;;;;;;15.10;10.63;;;;;;;2.53;86.00;101227.28;5064279;28;20684;-72
2022/03/14 06:27:58;;;;;;;15.27;10.60;;;;;;;2.68;85.70;101232.84;5060626;28;20211;-72
2022/03/14 06:30:26;;;;;;;11.30;9.03;;;;;;;2.89;84.16;101232.59;5067038;28;20259;-72
2022/03/14 06:32:52;;;;;;;10.50;8.90;;;;;;;2.96;82.09;101235.38;5064388;28;20204;-72
2022/03/14 06:35:20;;;;;;;9.93;9.00;;;;;;;3.02;81.84;101245.69;5066709;28;20211;-72
2022/03/14 06:37:47;;;;;;;15.37;9.30;;;;;;;3.05;81.02;101245.78;5064502;28;20296;-71
2022/03/14 06:40:16;;;;;;;15.37;8.93;;;;;;;3.25;81.33;101248.03;5058688;28;20292;-72
2022/03/14 06:42:49;;;;;;;13.43;8.50;;;;;;;3.39;80.44;101251.81;5059316;28;20220;-72
2022/03/14 06:45:23;;;;;;;8.97;8.10;;;;;;;3.50;79.65;101251.31;5063730;28;20204;-73
2022/03/14 06:47:50;;;;;;;32.63;9.30;;;;;;;3.47;78.47;101253.75;5067002;28;20228;-72
2022/03/14 06:50:17;;;;;;;16.07;8.67;;;;;;;3.47;78.74;101250.34;5067681;28;20640;-72
2022/03/14 06:52:44;;;;;;;9.90;7.97;;;;;;;3.55;78.28;101259.06;5063774;28;20573;-72
2022/03/14 06:55:11;;;;;;;9.67;8.87;;;;;;;3.60;77.97;101268.50;5064947;28;20207;-72
2022/03/14 06:57:40;;;;;;;11.33;8.27;;;;;;;3.67;78.12;101261.91;5064000;28;20681;-72
2022/03/14 07:00:08;;;;;;;12.47;8.33;;;;;;;3.76;77.42;101264.69;5065321;28;20205;-72
2022/03/14 07:02:38;;;;;;;11.67;8.03;;;;;;;3.86;76.25;101271.72;5059817;28;20227;-73
2022/03/14 07:05:06;;;;;;;9.43;8.20;;;;;;;3.95;75.01;101260.97;5062547;28;20675;-73
2022/03/14 07:07:33;;;;;;;9.03;7.80;;;;;;;4.23;72.51;101268.47;5061846;28;20214;-72
2022/03/14 07:10:00;;;;;;;9.87;8.27;;;;;;;4.49;71.89;101281.81;5063216;28;20232;-72
2022/03/14 07:12:27;;;;;;;9.33;7.90;;;;;;;4.68;71.51;101273.81;5058928;28;20201;-72
2022/03/14 07:14:56;;;;;;;9.53;7.70;;;;;;;4.91;71.65;101277.72;5059903;28;20304;-72
2022/03/14 07:17:23;;;;;;;7.43;6.90;;;;;;;5.16;70.32;101279.13;5068266;28;20298;-73
2022/03/14 07:19:49;;;;;;;8.83;7.97;;;;;;;5.34;69.96;101263.41;5065176;28;20287;-73
2022/03/14 07:22:19;;;;;;;8.23;7.53;;;;;;;5.66;68.51;101272.53;5067458;28;20307;-73
2022/03/14 07:24:47;;;;;;;6.87;6.27;;;;;;;5.75;64.08;101257.47;5057700;28;20196;-73
2022/03/14 07:27:15;;;;;;;12.33;6.40;;;;;;;5.98;64.16;101276.56;5058748;28;20670;-72
2022/03/14 07:29:42;;;;;;;7.13;6.63;;;;;;;6.15;61.51;101280.28;5063514;28;20200;-72
2022/03/14 07:32:11;;;;;;;8.33;7.40;;;;;;;6.22;60.06;101287.22;5059113;28;20210;-72
2022/03/14 07:34:38;;;;;;;9.57;7.87;;;;;;;6.11;57.46;101293.78;5058812;28;20583;-71
2022/03/14 07:37:07;;;;;;;60.23;10.70;;;;;;;6.18;58.04;101287.97;5062523;28;20211;-71
2022/03/14 07:39:34;;;;;;;7.80;7.10;;;;;;;6.24;57.80;101294.88;5065745;28;20769;-71
2022/03/14 07:42:01;;;;;;;8.60;7.80;;;;;;;6.18;55.75;101294.75;5063723;28;20281;-71
2022/03/14 07:44:27;;;;;;;8.17;7.47;;;;;;;6.26;57.91;101294.09;5064013;28;20669;-71
2022/03/14 07:46:54;;;;;;;8.50;6.37;;;;;;;6.45;55.25;101294.38;5058264;28;20207;-71
2022/03/14 07:49:23;;;;;;;7.90;6.97;;;;;;;6.51;54.24;101299.59;5052675;28;20228;-71
2022/03/14 07:51:49;;;;;;;8.83;7.07;;;;;;;6.75;55.41;101294.88;5058761;28;20787;-71
2022/03/14 07:54:16;;;;;;;8.97;8.07;;;;;;;7.12;54.97;101297.13;5067115;28;20576;-71
2022/03/14 07:56:43;;;;;;;7.77;7.00;;;;;;;7.35;53.42;101305.09;5056738;28;20235;-71
2022/03/14 07:59:10;;;;;;;7.00;6.50;;;;;;;7.58;51.64;101300.28;5065196;28;20211;-71
2022/03/14 08:01:37;;;;;;;8.87;7.10;;;;;;;7.73;51.24;101308.13;5058005;28;20285;-72
2022/03/14 08:04:04;;;;;;;7.73;7.13;;;;;;;7.87;49.63;101304.03;5053985;28;20224;-72
2022/03/14 08:06:41;;;;;;;11.57;7.23;;;;;;;8.01;48.78;101304.19;5057405;28;20625;-71
2022/03/14 08:09:08;;;;;;;7.70;7.00;;;;;;;8.00;49.71;101267.59;5054645;28;20253;-73
2022/03/14 08:11:38;;;;;;;7.60;7.00;;;;;;;8.31;49.28;101301.97;5058607;28;20282;-70
2022/03/14 08:14:05;;;;;;;7.70;6.80;;;;;;;8.40;47.03;101305.47;5053786;28;20213;-70
2022/03/14 08:16:32;;;;;;;7.73;7.13;;;;;;;8.51;46.35;101308.13;5056225;28;20629;-70
2022/03/14 08:18:59;;;;;;;7.60;7.03;;;;;;;8.60;46.83;101308.19;5054763;28;20196;-70
2022/03/14 08:21:26;;;;;;;7.27;6.67;;;;;;;8.65;46.69;101315.91;5058366;28;20744;-70
2022/03/14 08:23:54;;;;;;;9.17;7.70;;;;;;;8.80;46.76;101305.78;5061611;28;20281;-71
2022/03/14 08:26:21;;;;;;;8.30;7.33;;;;;;;8.95;46.13;101311.00;5063198;28;20207;-71
2022/03/14 08:28:49;;;;;;;8.70;7.17;;;;;;;9.09;46.03;101304.28;5055028;28;20255;-69
2022/03/14 08:31:21;;;;;;;7.77;7.03;;;;;;;9.23;44.46;101312.91;5059047;28;20247;-70
2022/03/14 08:33:48;;;;;;;8.90;7.70;;;;;;;9.34;46.69;101313.81;5057836;28;20696;-70
2022/03/14 08:36:20;;;;;;;7.83;7.13;;;;;;;9.37;44.04;101316.38;5066080;28;20207;-69
2022/03/14 08:38:47;;;;;;;9.43;7.53;;;;;;;9.41;44.35;101318.13;5058027;28;20236;-71
2022/03/14 08:41:16;;;;;;;8.13;6.57;;;;;;;9.60;46.99;101307.97;5066363;28;20219;-73
2022/03/14 08:43:43;;;;;;;7.47;6.77;;;;;;;9.69;47.62;101313.16;5058346;28;20200;-73
2022/03/14 08:46:11;;;;;;;7.60;7.00;;;;;;;9.52;43.35;101299.41;5059638;28;20208;-72
2022/03/14 08:48:38;;;;;;;8.10;7.30;;;;;;;9.57;44.47;101307.94;5057579;28;20205;-73
2022/03/14 08:51:05;;;;;;;8.33;7.43;;;;;;;9.78;45.86;101306.34;5057181;28;20204;-70
2022/03/14 08:53:32;;;;;;;7.30;6.83;;;;;;;9.95;45.44;101308.97;5061854;28;20224;-72
2022/03/14 08:56:01;;;;;;;8.37;6.47;;;;;;;10.00;42.90;101309.81;5057754;28;20205;-70
2022/03/14 08:58:30;;;;;;;7.80;7.00;;;;;;;10.02;43.24;101303.84;5055190;28;20291;-70
2022/03/14 09:00:59;;;;;;;8.40;7.73;;;;;;;10.12;43.18;101311.53;5060328;28;20199;-71
2022/03/14 09:03:26;;;;;;;6.93;6.33;;;;;;;10.43;41.67;101318.47;5065582;28;20323;-71
2022/03/14 09:05:56;;;;;;;11.13;6.97;;;;;;;10.43;39.92;101311.66;5055260;28;20228;-70
2022/03/14 09:08:23;;;;;;;7.73;6.97;;;;;;;10.45;39.92;101307.38;5065933;28;20212;-70
2022/03/14 09:10:51;;;;;;;7.80;7.13;;;;;;;10.38;42.09;101303.09;5060359;28;20205;-70
2022/03/14 09:13:18;;;;;;;7.13;6.57;;;;;;;10.22;41.23;101306.47;5064710;28;20626;-70
2022/03/14 09:15:48;;;;;;;7.47;6.80;;;;;;;10.49;41.19;101308.22;5064675;28;20278;-71
2022/03/14 09:18:15;;;;;;;7.97;7.23;;;;;;;10.69;42.59;101313.38;5065079;28;20595;-70
2022/03/14 09:20:44;;;;;;;7.20;6.60;;;;;;;10.77;40.91;101306.50;5061352;28;20200;-70
2022/03/14 09:23:11;;;;;;;7.63;6.70;;;;;;;10.47;38.76;101308.22;5065883;28;20227;-69
2022/03/14 09:25:38;;;;;;;8.17;7.53;;;;;;;10.55;39.60;101308.22;5066096;28;20201;-70
2022/03/14 09:28:05;;;;;;;15.83;8.10;;;;;;;10.48;41.43;101309.94;5061557;28;20291;-70
2022/03/14 09:30:32;;;;;;;12.10;7.73;;;;;;;10.58;41.35;101307.38;5066565;28;20287;-71
2022/03/14 09:33:01;;;;;;;9.33;8.50;;;;;;;10.75;41.33;101311.66;5065534;28;20208;-71
2022/03/14 09:35:27;;;;;;;13.17;8.67;;;;;;;10.88;44.03;101309.94;5065283;28;20404;-72
2022/03/14 09:37:55;;;;;;;7.13;6.43;;;;;;;10.90;40.46;101295.38;5065876;28;20289;-72
2022/03/14 09:40:23;;;;;;;7.17;6.53;;;;;;;11.02;42.13;101310.75;5064365;28;20207;-71
2022/03/14 09:42:53;;;;;;;7.73;7.13;;;;;;;10.97;40.80;101321.03;5063607;28;20215;-71
2022/03/14 09:45:21;;;;;;;7.27;6.80;;;;;;;10.79;39.78;101313.34;5067833;28;20212;-71
2022/03/14 09:47:50;;;;;;;12.80;8.97;;;;;;;10.86;39.92;101314.19;5060833;28;20223;-71
2022/03/14 09:50:26;;;;;;;13.43;9.83;;;;;;;10.92;39.67;101311.66;5066154;28;20286;-71
2022/03/14 09:52:55;;;;;;;8.43;7.63;;;;;;;10.83;40.22;101311.63;5065506;28;20530;-71
2022/03/14 09:55:22;;;;;;;7.77;7.17;;;;;;;11.03;40.41;101315.03;5062971;28;20209;-71
2022/03/14 09:57:49;;;;;;;8.80;7.67;;;;;;;11.03;39.40;101309.91;5063392;28;20649;-71
2022/03/14 10:00:18;;;;;;;21.93;8.33;;;;;;;11.03;42.00;101315.91;5058794;28;20673;-71
2022/03/14 10:02:46;;;;;;;7.43;6.83;;;;;;;11.06;42.89;101310.75;5063279;28;20216;-73
2022/03/14 10:05:14;;;;;;;8.17;7.40;;;;;;;11.05;38.65;101318.44;5059015;28;20279;-71
2022/03/14 10:07:44;;;;;;;6.17;5.73;;;;;;;11.16;38.97;101311.59;5064924;28;20208;-71
2022/03/14 10:10:13;;;;;;;8.33;7.43;;;;;;;11.28;38.96;101316.69;5062733;28;20199;-71
2022/03/14 10:12:42;;;;;;;10.33;9.33;;;;;;;11.08;38.89;101308.19;5057409;28;20197;-72
2022/03/14 10:15:11;;;;;;;11.57;9.13;;;;;;;10.78;37.45;101311.66;5061887;28;20231;-71
2022/03/14 10:17:38;;;;;;;7.00;6.33;;;;;;;10.64;37.40;101307.38;5067292;28;20207;-70
2022/03/14 10:20:07;;;;;;;13.70;10.90;;;;;;;10.50;37.16;101305.66;5066731;28;20695;-71
2022/03/14 10:22:35;;;;;;;12.13;10.00;;;;;;;10.38;37.12;101303.09;5060609;28;20726;-71
2022/03/14 10:25:09;;;;;;;6.33;5.77;;;;;;;10.40;37.11;101285.97;5059342;28;20209;-71
2022/03/14 10:27:39;;;;;;;6.30;5.80;;;;;;;10.41;37.57;101295.38;5064351;28;20599;-71
2022/03/14 10:30:21;;;;;;;5.43;5.03;;;;;;;10.47;40.98;101282.56;5059477;28;20196;-71
2022/03/14 10:32:48;;;;;;;6.40;5.90;;;;;;;10.64;41.58;101285.13;5058221;28;20604;-71
2022/03/14 10:35:20;;;;;;;6.30;5.90;;;;;;;10.80;37.26;101288.53;5057759;28;21685;-71
2022/03/14 10:37:58;;;;;;;5.83;5.23;;;;;;;10.99;38.00;101293.66;5059425;28;20201;-71
2022/03/14 10:40:31;;;;;;;6.23;5.70;;;;;;;11.03;38.32;101290.22;5059256;28;20200;-71
2022/03/14 10:42:59;;;;;;;6.73;6.23;;;;;;;10.97;37.81;101289.38;5065378;28;20311;-72
2022/03/14 10:45:26;;;;;;;6.17;5.67;;;;;;;10.97;40.09;101281.69;5064396;28;20629;-70
2022/03/14 10:47:57;;;;;;;6.77;6.20;;;;;;;10.92;39.14;101286.00;5061283;28;20295;-70
2022/03/14 10:50:32;;;;;;;6.73;6.10;;;;;;;11.07;37.89;101286.81;5057568;28;20211;-71
2022/03/14 10:53:08;;;;;;;8.47;5.60;;;;;;;11.16;38.65;101275.66;5064568;28;20214;-70
2022/03/14 10:55:39;;;;;;;7.50;4.67;;;;;;;11.15;37.16;101284.19;5062056;28;20616;-71
2022/03/14 10:58:12;;;;;;;14.67;8.60;;;;;;;11.11;36.62;101282.53;5060542;28;20593;-70
2022/03/14 11:00:50;;;;;;;5.47;5.17;;;;;;;11.19;36.30;101277.34;5062218;28;20200;-71
2022/03/14 11:03:29;;;;;;;6.93;5.13;;;;;;;11.17;37.47;101266.25;5057736;28;20252;-71
2022/03/14 11:06:01;;;;;;;6.07;5.67;;;;;;;11.24;37.63;101268.81;5059084;28;20298;-71
2022/03/14 11:08:30;;;;;;;6.10;5.70;;;;;;;11.17;36.19;101267.09;5061851;28;21096;-66
2022/03/14 11:11:01;;;;;;;6.13;5.72;;;;;;;11.14;36.18;101267.13;5057363;28;20447;-67
2022/03/14 11:13:28;;;;;;;5.70;5.13;;;;;;;10.82;36.08;101269.75;5064380;28;21029;-66
2022/03/14 11:15:56;;;;;;;5.53;5.13;;;;;;;10.72;34.99;101269.75;5057988;28;20200;-66
2022/03/14 11:18:24;;;;;;;6.90;6.30;;;;;;;10.49;36.31;101264.63;5053633;28;20204;-66
2022/03/14 11:20:52;;;;;;;6.90;6.37;;;;;;;10.66;38.63;101264.63;5062495;28;20210;-67
2022/03/14 11:23:20;;;;;;;6.07;5.67;;;;;;;10.86;39.98;101260.31;5059785;28;20222;-67
2022/03/14 11:25:47;;;;;;;5.87;5.43;;;;;;;11.14;38.96;101259.41;5064188;28;20288;-67